Time;durP1;ratioP1;P1;durP2;ratioP2;P2;SDS_P1;SDS_P2;PMS_P1;PMS_P2;Temp;Humidity;BMP_temperature;BMP_pressure;BME280_temperature;BME280_humidity;BME280_pressure;Samples;Min_cycle;Max_cycle;Signal;HPM_P1;HPM_P2
2020/12/03 07:33:36;;;;;;;4.53;3.47;;;;;;;21.83;56.51;94901.16;1054854;27;20376;-63
2020/12/03 07:34:25;;;;;;;5.63;3.78;;;;;;;22.10;58.32;94903.91;1050586;28;20033;-67
2020/12/03 07:35:28;;;;;;;4.93;3.22;;;;;;;22.21;56.58;94904.88;1053122;28;20043;-68
2020/12/03 07:36:37;;;;;;;3.72;2.95;;;;;;;22.35;55.57;94901.66;1048894;28;20040;-64
2020/12/03 07:37:50;;;;;;;4.25;3.00;;;;;;;22.22;53.97;94901.06;1050368;28;20020;-57
2020/12/03 07:38:32;;;;;;;4.25;3.20;;;;;;;22.26;54.33;94906.47;1042816;28;20021;-64
2020/12/03 07:39:47;;;;;;;5.93;3.10;;;;;;;21.99;55.11;94902.94;1058414;27;20330;-61
2020/12/03 07:40:19;;;;;;;7.80;3.45;;;;;;;21.95;54.90;94907.44;1059034;27;20465;-59
2020/12/03 07:40:53;;;;;;;4.85;3.40;;;;;;;21.83;54.82;94895.03;1053650;28;20053;-58
2020/12/03 07:41:24;;;;;;;6.53;3.30;;;;;;;21.79;54.85;94904.88;1050298;28;20020;-60
2020/12/03 07:42:15;;;;;;;11.52;3.15;;;;;;;21.98;57.90;94898.72;1048371;28;20107;-64
2020/12/03 07:42:46;;;;;;;4.57;3.30;;;;;;;22.08;55.38;94900.81;1041703;28;20462;-64
2020/12/03 07:43:31;;;;;;;6.53;3.55;;;;;;;22.10;54.57;94887.88;1041878;28;20025;-64
2020/12/03 07:44:28;;;;;;;4.63;3.55;;;;;;;22.26;54.60;94890.41;1050228;28;20029;-63
2020/12/03 07:44:59;;;;;;;10.85;3.35;;;;;;;22.38;55.64;94882.22;1041069;28;20451;-69
2020/12/03 07:45:43;;;;;;;4.70;3.20;;;;;;;22.57;54.60;94884.03;1040769;28;20028;-72
2020/12/03 07:46:28;;;;;;;5.38;3.13;;;;;;;22.90;54.70;94879.88;1046182;28;20115;-69
2020/12/03 07:47:17;;;;;;;10.05;3.58;;;;;;;23.00;54.11;94884.63;1049737;28;20028;-63
2020/12/03 07:48:05;;;;;;;6.72;3.03;;;;;;;23.06;54.70;94880.50;1052795;28;20093;-62
2020/12/03 07:48:43;;;;;;;4.20;2.70;;;;;;;23.07;53.26;94884.72;1054368;28;20289;-66
2020/12/03 07:49:42;;;;;;;5.50;3.20;;;;;;;23.02;52.73;94883.13;1050393;28;20024;-71
2020/12/03 07:50:22;;;;;;;3.55;3.10;;;;;;;23.03;53.10;94873.97;1045085;28;20021;-69
2020/12/03 07:51:01;;;;;;;5.40;3.10;;;;;;;23.10;53.25;94883.22;1042778;28;20029;-69
2020/12/03 07:51:32;;;;;;;5.70;3.20;;;;;;;22.95;52.39;94883.03;1049935;28;20108;-60
2020/12/03 07:52:30;;;;;;;4.10;2.80;;;;;;;22.75;52.87;94873.56;1052969;28;20830;-61
2020/12/03 07:53:15;;;;;;;4.93;2.88;;;;;;;22.58;53.17;94878.31;1050103;28;20064;-62
2020/12/03 07:53:46;;;;;;;7.75;3.40;;;;;;;22.52;53.48;94882.41;1049616;28;20521;-63
2020/12/03 07:54:17;;;;;;;4.53;3.28;;;;;;;22.43;53.77;94878.47;1050192;28;20020;-61
2020/12/03 07:54:47;;;;;;;8.10;3.33;;;;;;;22.34;53.87;94879.50;1050005;28;20020;-59
2020/12/03 07:55:21;;;;;;;5.18;3.40;;;;;;;22.29;53.91;94876.34;1050191;28;20020;-60
2020/12/03 07:55:52;;;;;;;6.75;3.22;;;;;;;22.23;54.11;94886.59;1048173;28;20429;-60
2020/12/03 07:56:29;;;;;;;6.50;3.00;;;;;;;22.17;54.24;94885.34;1054857;28;20062;-60
2020/12/03 07:57:00;;;;;;;5.25;3.10;;;;;;;22.15;54.48;94881.44;1052196;28;20524;-64
2020/12/03 07:57:33;;;;;;;5.55;3.40;;;;;;;22.10;54.52;94883.28;1050339;28;20039;-62
2020/12/03 07:58:04;;;;;;;5.38;3.10;;;;;;;22.06;54.69;94884.34;1045686;28;20540;-61
2020/12/03 07:58:40;;;;;;;4.22;3.03;;;;;;;22.03;54.78;94891.19;1046901;28;20108;-61
2020/12/03 07:59:23;;;;;;;5.80;3.08;;;;;;;22.41;57.66;94880.72;1045622;28;20021;-64
2020/12/03 07:59:53;;;;;;;6.75;3.08;;;;;;;22.47;55.42;94881.97;1047166;28;20040;-63
2020/12/03 08:00:26;;;;;;;9.45;3.10;;;;;;;22.58;54.92;94874.88;1046278;28;20080;-67
2020/12/03 08:00:57;;;;;;;4.90;3.03;;;;;;;22.64;54.66;94884.13;1047739;28;20024;-66
2020/12/03 08:01:27;;;;;;;4.63;2.97;;;;;;;22.69;54.30;94881.13;1045923;28;20035;-63
2020/12/03 08:01:59;;;;;;;5.65;3.28;;;;;;;22.76;55.10;94878.56;1046435;28;20517;-64
2020/12/03 08:02:53;;;;;;;4.88;2.75;;;;;;;22.81;54.45;94878.25;1047244;28;20064;-62
2020/12/03 08:03:37;;;;;;;3.72;2.88;;;;;;;22.91;57.70;94882.22;1040964;28;20025;-64
2020/12/03 08:04:07;;;;;;;2.92;2.63;;;;;;;22.79;53.90;94885.84;1042578;28;20127;-67
2020/12/03 08:04:38;;;;;;;4.68;2.92;;;;;;;22.82;54.84;94885.13;1046860;28;20017;-64
2020/12/03 08:05:50;;;;;;;3.78;3.03;;;;;;;22.80;53.65;94884.75;1048504;28;20057;-66
2020/12/03 08:06:20;;;;;;;8.75;2.60;;;;;;;22.82;53.61;94885.13;1032201;28;20408;-62
2020/12/03 08:07:00;;;;;;;4.85;3.30;;;;;;;22.76;53.50;94885.81;1030652;28;20030;-60
2020/12/03 08:07:32;;;;;;;4.22;2.83;;;;;;;22.70;53.68;94882.69;1032557;28;20672;-61
2020/12/03 08:08:03;;;;;;;5.38;2.80;;;;;;;22.63;53.75;94881.81;1029289;28;20026;-60
2020/12/03 08:08:35;;;;;;;6.38;2.67;;;;;;;22.57;53.77;94884.03;1026587;28;20123;-60
2020/12/03 08:09:06;;;;;;;5.03;2.58;;;;;;;22.53;54.04;94878.59;1038711;28;20395;-60
2020/12/03 08:09:39;;;;;;;4.57;3.22;;;;;;;22.46;53.98;94877.75;1040719;28;20059;-62
2020/12/03 08:10:33;;;;;;;3.65;2.80;;;;;;;22.40;54.26;94881.84;1041954;28;20021;-60
2020/12/03 08:11:05;;;;;;;3.35;2.65;;;;;;;22.32;54.34;94878.31;1049034;28;20032;-61
2020/12/03 08:11:35;;;;;;;5.07;3.10;;;;;;;22.29;54.63;94879.00;1045754;28;20526;-59
2020/12/03 08:12:09;;;;;;;4.70;3.00;;;;;;;22.24;54.56;94880.09;1049475;28;20027;-61
2020/12/03 08:13:02;;;;;;;3.90;2.92;;;;;;;22.20;54.55;94876.59;1056891;28;20523;-60
2020/12/03 08:13:54;;;;;;;3.60;3.08;;;;;;;22.18;54.66;94868.16;1053510;28;20028;-60
2020/12/03 08:14:38;;;;;;;4.53;2.88;;;;;;;22.16;54.78;94878.44;1052308;28;20059;-61
2020/12/03 08:15:08;;;;;;;3.58;2.95;;;;;;;22.10;54.88;94869.16;1047383;28;20028;-60
2020/12/03 08:15:40;;;;;;;4.57;2.92;;;;;;;22.05;55.01;94866.78;1040694;28;20717;-61
2020/12/03 08:16:12;;;;;;;3.50;2.90;;;;;;;22.03;55.09;94871.69;1041862;28;20021;-63
2020/12/03 08:16:43;;;;;;;3.50;2.90;;;;;;;22.00;55.10;94872.41;1043599;28;20029;-61
2020/12/03 08:17:16;;;;;;;3.92;3.05;;;;;;;21.99;55.25;94873.53;1044276;28;20029;-60
2020/12/03 08:17:47;;;;;;;6.28;3.10;;;;;;;21.96;55.25;94872.34;1051665;28;20832;-61
2020/12/03 08:18:43;;;;;;;8.55;2.95;;;;;;;21.96;55.34;94874.25;1049957;28;20032;-60
2020/12/03 08:19:28;;;;;;;3.70;2.92;;;;;;;21.95;55.36;94880.72;1044455;28;20032;-61
2020/12/03 08:20:06;;;;;;;5.03;2.97;;;;;;;21.91;55.46;94870.00;1046434;28;20033;-61
2020/12/03 08:20:43;;;;;;;3.67;2.88;;;;;;;21.92;55.45;94870.75;1050705;28;20065;-58
2020/12/03 08:21:15;;;;;;;4.30;3.05;;;;;;;21.88;55.54;94874.13;1050606;28;20017;-58
2020/12/03 08:21:46;;;;;;;13.82;3.35;;;;;;;21.79;55.53;94872.81;1051636;28;20044;-66
2020/12/03 08:22:22;;;;;;;6.63;3.05;;;;;;;21.64;55.77;94871.81;1049823;28;20032;-64
2020/12/03 08:22:54;;;;;;;5.30;2.90;;;;;;;21.55;56.24;94869.34;1046000;28;20017;-66
2020/12/03 08:23:24;;;;;;;6.25;3.33;;;;;;;21.41;56.28;94864.53;1049363;28;20035;-66
2020/12/03 08:23:55;;;;;;;3.25;2.78;;;;;;;21.41;56.54;94869.88;1045445;28;20025;-65
2020/12/03 08:24:28;;;;;;;3.88;3.08;;;;;;;21.37;56.62;94873.59;1050446;28;20044;-64
2020/12/03 08:25:12;;;;;;;4.20;3.20;;;;;;;21.33;56.80;94878.84;1049576;28;20498;-66
2020/12/03 08:25:43;;;;;;;5.88;2.88;;;;;;;21.22;57.08;94864.50;1052160;28;20023;-65
2020/12/03 08:26:13;;;;;;;4.00;2.85;;;;;;;21.25;57.11;94879.81;1046483;28;20044;-65
2020/12/03 08:26:44;;;;;;;4.53;2.80;;;;;;;21.23;57.15;94876.75;1042395;28;20083;-65
2020/12/03 08:27:19;;;;;;;4.47;3.15;;;;;;;21.19;57.25;94870.53;1037646;28;20025;-67
2020/12/03 08:27:58;;;;;;;5.45;3.00;;;;;;;21.17;57.44;94868.25;1042163;28;20029;-63
2020/12/03 08:28:30;;;;;;;4.90;3.08;;;;;;;21.15;57.44;94865.13;1047027;28;20047;-64
2020/12/03 08:29:00;;;;;;;3.45;2.90;;;;;;;21.13;57.57;94862.06;1052483;28;20074;-62
2020/12/03 08:29:37;;;;;;;4.32;3.00;;;;;;;21.12;57.64;94865.06;1047983;28;20093;-65
2020/12/03 08:31:05;;;;;;;4.28;2.60;;;;;;;21.11;57.66;94866.19;1057111;28;20017;-64
2020/12/03 08:31:35;;;;;;;5.13;3.30;;;;;;;21.10;57.59;94859.34;1053763;28;20103;-63
2020/12/03 08:32:06;;;;;;;4.50;2.70;;;;;;;21.09;57.66;94868.44;1046084;28;20020;-65
2020/12/03 08:32:54;;;;;;;3.28;2.63;;;;;;;21.09;57.80;94863.91;1046056;28;20552;-63
2020/12/03 08:33:34;;;;;;;4.13;2.90;;;;;;;21.09;57.86;94863.09;1047168;28;20021;-65
2020/12/03 08:34:05;;;;;;;4.25;3.22;;;;;;;21.04;57.85;94861.50;1051008;28;20382;-64
2020/12/03 08:34:36;;;;;;;3.08;2.58;;;;;;;21.03;57.84;94853.88;1045258;28;20031;-64
2020/12/03 08:35:07;;;;;;;5.18;2.80;;;;;;;21.02;57.86;94855.72;1037800;28;20087;-63
2020/12/03 08:35:39;;;;;;;5.57;2.65;;;;;;;21.07;58.02;94866.13;1040440;28;20656;-62
2020/12/03 08:36:11;;;;;;;3.08;2.60;;;;;;;20.99;58.06;94853.00;1038802;28;20010;-64
2020/12/03 08:36:42;;;;;;;3.05;2.55;;;;;;;21.01;58.01;94861.44;1042543;28;20020;-63
2020/12/03 08:37:15;;;;;;;3.25;2.70;;;;;;;21.02;57.94;94862.97;1041375;28;20442;-63
2020/12/03 08:37:46;;;;;;;3.55;3.10;;;;;;;21.05;58.13;94872.94;1037109;28;20030;-65
2020/12/03 08:38:29;;;;;;;3.50;2.65;;;;;;;21.01;57.95;94862.19;1041700;28;20036;-64
2020/12/03 08:39:00;;;;;;;3.38;2.85;;;;;;;21.07;58.08;94870.69;1040039;28;20572;-63
2020/12/03 08:39:31;;;;;;;3.00;2.70;;;;;;;21.06;58.14;94863.81;1044676;28;20021;-65
2020/12/03 08:40:04;;;;;;;12.02;3.10;;;;;;;21.01;58.04;94858.75;1043498;28;20557;-63
2020/12/03 08:40:37;;;;;;;3.53;2.63;;;;;;;21.02;58.09;94868.31;1047838;28;20029;-64
2020/12/03 08:41:12;;;;;;;3.58;2.67;;;;;;;21.06;58.14;94871.81;1045850;28;20024;-63
2020/12/03 08:41:42;;;;;;;3.20;2.75;;;;;;;21.06;58.15;94874.47;1050729;28;20039;-64
2020/12/03 08:42:13;;;;;;;5.80;2.75;;;;;;;21.06;57.88;94875.28;1041912;28;20021;-64
2020/12/03 08:42:43;;;;;;;5.75;3.28;;;;;;;21.05;58.31;94867.59;1051745;28;20020;-62
2020/12/03 08:43:16;;;;;;;5.45;2.80;;;;;;;21.06;58.21;94872.59;1046561;28;20032;-62
2020/12/03 08:43:52;;;;;;;3.45;2.63;;;;;;;21.06;58.29;94874.47;1050185;28;20777;-64
2020/12/03 08:44:23;;;;;;;6.38;3.08;;;;;;;21.07;58.25;94870.69;1040929;28;20025;-63
2020/12/03 08:44:53;;;;;;;2.80;2.60;;;;;;;21.07;58.21;94879.47;1036316;28;20518;-63
2020/12/03 08:45:24;;;;;;;3.53;2.70;;;;;;;21.07;58.25;94882.13;1033462;28;20022;-62
2020/12/03 08:46:30;;;;;;;3.65;2.60;;;;;;;21.07;58.24;94876.03;1039356;28;20070;-64
2020/12/03 08:46:54;;;;;;;2.92;2.47;;;;;;;21.09;58.26;94869.25;1049806;28;20082;-63
2020/12/03 08:47:34;;;;;;;7.25;2.78;;;;;;;21.10;58.23;94876.09;1045283;28;20017;-62
2020/12/03 08:48:05;;;;;;;6.18;2.58;;;;;;;21.09;58.19;94876.44;1046886;28;20600;-65
2020/12/03 08:48:37;;;;;;;5.50;2.80;;;;;;;21.12;58.23;94876.50;1047943;28;20112;-66
2020/12/03 08:49:19;;;;;;;7.55;3.40;;;;;;;21.11;58.21;94871.53;1047666;28;20481;-68
2020/12/03 08:49:50;;;;;;;3.97;2.53;;;;;;;21.13;58.30;94875.41;1036957;28;20036;-64
2020/12/03 08:50:20;;;;;;;3.42;2.50;;;;;;;21.14;58.28;94876.19;1037108;28;20045;-64
2020/12/03 08:51:15;;;;;;;3.13;2.83;;;;;;;21.10;58.18;94867.34;1041631;28;20090;-62
2020/12/03 08:51:49;;;;;;;6.53;2.90;;;;;;;21.18;58.24;94871.69;1038885;28;20100;-63
2020/12/03 08:52:20;;;;;;;4.40;2.95;;;;;;;21.19;58.18;94875.88;1040012;28;20124;-63
2020/12/03 08:52:51;;;;;;;3.38;2.83;;;;;;;21.17;58.23;94876.25;1037391;28;20507;-63
2020/12/03 08:53:22;;;;;;;5.88;2.65;;;;;;;21.20;58.28;94866.78;1039570;28;20095;-65
2020/12/03 08:53:53;;;;;;;5.75;2.78;;;;;;;21.22;58.29;94877.09;1049090;28;20016;-63
2020/12/03 08:54:28;;;;;;;4.95;2.60;;;;;;;21.23;58.27;94867.94;1051543;28;20031;-66
2020/12/03 08:55:05;;;;;;;3.58;2.75;;;;;;;21.23;58.18;94874.06;1038231;28;20116;-64
2020/12/03 08:55:40;;;;;;;4.30;3.03;;;;;;;21.25;58.20;94877.16;1036875;28;20549;-64
2020/12/03 08:56:17;;;;;;;4.65;2.80;;;;;;;21.26;58.33;94877.91;1036146;28;20017;-64
2020/12/03 08:56:47;;;;;;;3.08;2.72;;;;;;;21.05;56.75;94862.28;1044992;28;20515;-65
2020/12/03 08:57:18;;;;;;;5.72;3.63;;;;;;;20.94;57.26;94878.06;1034775;28;20048;-67
2020/12/03 08:57:49;;;;;;;4.80;3.78;;;;;;;20.76;56.72;94883.03;1037966;28;20032;-65
2020/12/03 08:58:20;;;;;;;5.68;3.35;;;;;;;20.57;56.88;94872.31;1038895;28;20021;-63
2020/12/03 08:58:59;;;;;;;4.90;3.55;;;;;;;20.44;57.51;94882.28;1042226;28;20066;-62
2020/12/03 08:59:34;;;;;;;14.60;8.27;;;;;;;20.38;53.68;94889.00;1036668;28;20092;-65
2020/12/03 09:00:07;;;;;;;9.95;7.82;;;;;;;20.34;55.08;94888.91;1034528;28;20042;-64
2020/12/03 09:00:41;;;;;;;5.90;5.03;;;;;;;20.18;55.94;94869.50;1041251;28;20029;-63
2020/12/03 09:01:12;;;;;;;6.97;5.70;;;;;;;20.25;55.31;94880.31;1040570;28;20414;-63
2020/12/03 09:01:46;;;;;;;8.80;6.50;;;;;;;20.12;53.22;94882.31;1041617;28;20017;-64
2020/12/03 09:02:18;;;;;;;8.10;6.30;;;;;;;20.06;55.38;94881.03;1036070;28;20455;-65
2020/12/03 09:02:48;;;;;;;8.18;6.13;;;;;;;20.12;55.47;94881.53;1035254;28;20018;-63
2020/12/03 09:03:20;;;;;;;8.13;4.60;;;;;;;19.99;55.65;94881.63;1034611;28;20419;-63
2020/12/03 09:03:51;;;;;;;5.28;4.63;;;;;;;19.98;56.41;94877.41;1032178;28;20431;-64
2020/12/03 09:04:24;;;;;;;6.32;5.07;;;;;;;19.85;55.99;94878.63;1039876;28;20068;-65
2020/12/03 09:04:57;;;;;;;5.57;4.65;;;;;;;19.80;54.79;94875.44;1045625;28;20021;-65
2020/12/03 09:05:28;;;;;;;7.70;4.85;;;;;;;19.73;54.89;94860.06;1042097;28;20033;-64
2020/12/03 09:05:58;;;;;;;7.25;5.47;;;;;;;19.70;56.43;94866.06;1041830;28;20013;-63
2020/12/03 09:06:30;;;;;;;7.68;4.90;;;;;;;19.68;55.18;94874.38;1035928;28;20006;-63
2020/12/03 09:07:00;;;;;;;7.05;5.00;;;;;;;19.61;55.96;94865.41;1034895;28;20014;-64
2020/12/03 09:07:32;;;;;;;6.68;5.10;;;;;;;19.48;56.30;94857.50;1036823;28;20017;-62
2020/12/03 09:08:02;;;;;;;5.57;4.45;;;;;;;19.44;56.42;94859.28;1037530;28;20025;-65
2020/12/03 09:08:33;;;;;;;8.80;4.72;;;;;;;19.46;57.00;94862.38;1041865;28;20040;-63
2020/12/03 09:09:03;;;;;;;6.68;5.22;;;;;;;19.50;56.71;94870.47;1030256;28;20168;-63
2020/12/03 09:09:35;;;;;;;6.38;5.20;;;;;;;19.50;57.02;94863.25;1037479;28;20029;-63
2020/12/03 09:10:06;;;;;;;8.48;5.35;;;;;;;19.49;57.18;94860.94;1034275;28;20028;-65
2020/12/03 09:10:36;;;;;;;7.50;4.97;;;;;;;19.47;54.81;94855.16;1034991;28;20053;-64
2020/12/03 09:11:07;;;;;;;8.35;6.47;;;;;;;19.51;54.61;94864.78;1038566;28;21619;-63
2020/12/03 09:11:37;;;;;;;10.05;7.38;;;;;;;19.44;52.56;94851.28;1038601;28;20025;-64
2020/12/03 09:12:09;;;;;;;10.55;8.32;;;;;;;19.36;53.33;94854.13;1038765;28;20677;-65
2020/12/03 09:12:40;;;;;;;9.57;7.68;;;;;;;19.39;54.21;94851.56;1035914;28;20017;-67
2020/12/03 09:13:12;;;;;;;9.82;7.68;;;;;;;19.35;52.98;94850.69;1043023;28;20390;-65
2020/12/03 09:13:42;;;;;;;11.02;8.00;;;;;;;19.39;54.64;94856.09;1042329;28;20048;-65
2020/12/03 09:14:13;;;;;;;6.78;6.00;;;;;;;19.39;55.52;94851.56;1041948;28;20021;-63
2020/12/03 09:14:44;;;;;;;5.88;5.18;;;;;;;19.34;56.17;94843.81;1034551;28;20022;-65
2020/12/03 09:15:16;;;;;;;7.85;5.65;;;;;;;19.29;54.54;94852.03;1038817;28;20044;-63
2020/12/03 09:15:47;;;;;;;7.95;6.00;;;;;;;19.32;56.12;94859.34;1040228;28;20033;-65
2020/12/03 09:16:17;;;;;;;7.53;5.85;;;;;;;19.27;56.21;94844.38;1039438;28;20044;-65
2020/12/03 09:16:54;;;;;;;8.30;6.30;;;;;;;19.34;56.48;94857.09;1035273;28;20790;-64
2020/12/03 09:17:25;;;;;;;7.65;5.78;;;;;;;19.34;54.85;94853.69;1026724;28;20019;-64
2020/12/03 09:17:59;;;;;;;7.25;5.72;;;;;;;19.28;55.76;94856.59;1039636;28;20055;-66
2020/12/03 09:18:29;;;;;;;7.88;6.10;;;;;;;19.25;55.41;94857.28;1042946;28;20024;-63
2020/12/03 09:19:00;;;;;;;9.48;6.22;;;;;;;19.18;53.54;94850.97;1050564;28;20047;-64
2020/12/03 09:19:30;;;;;;;10.48;8.20;;;;;;;19.14;54.11;94847.44;1046871;28;20013;-62
2020/12/03 09:20:08;;;;;;;9.15;7.00;;;;;;;19.19;55.02;94849.88;1050899;28;20032;-66
2020/12/03 09:20:45;;;;;;;8.07;5.85;;;;;;;19.15;55.42;94847.13;1049364;28;20050;-65
2020/12/03 09:21:26;;;;;;;11.00;6.95;;;;;;;19.24;54.31;94849.63;1043015;28;20025;-60
2020/12/03 09:21:57;;;;;;;19.42;6.40;;;;;;;19.55;55.57;94838.28;1039428;28;20056;-62
2020/12/03 09:22:27;;;;;;;24.35;5.93;;;;;;;19.95;58.15;94838.16;1037971;28;20040;-65
2020/12/03 09:22:58;;;;;;;67.40;7.93;;;;;;;20.22;54.22;94830.38;1041440;28;20028;-63
2020/12/03 09:23:31;;;;;;;55.42;6.82;;;;;;;20.48;55.39;94825.25;1044023;28;20062;-64
2020/12/03 09:24:02;;;;;;;8.27;5.22;;;;;;;20.76;54.59;94829.69;1043092;28;20048;-65
2020/12/03 09:24:33;;;;;;;7.63;5.05;;;;;;;22.22;49.35;94828.91;1044869;28;20078;-60
2020/12/03 09:25:11;;;;;;;7.70;5.15;;;;;;;21.83;49.95;94837.06;1034728;28;20026;-60
2020/12/03 09:25:42;;;;;;;12.35;4.90;;;;;;;21.67;53.40;94833.72;1034723;28;20026;-63
2020/12/03 09:27:44;;;;;;;22.50;5.85;;;;;;;21.71;52.48;94826.53;1063040;27;20377;-62
2020/12/03 09:28:15;;;;;;;18.63;5.38;;;;;;;21.79;51.18;94830.84;1058968;28;20126;-54
2020/12/03 09:28:47;;;;;;;16.60;5.95;;;;;;;21.65;49.38;94828.72;1061850;27;20014;-55
2020/12/03 09:29:21;;;;;;;19.23;13.40;;;;;;;18.45;38.83;94814.75;1056683;28;20405;-76
2020/12/03 09:29:52;;;;;;;25.90;15.95;;;;;;;16.24;43.24;94814.91;1045480;28;20046;-74
2020/12/03 09:30:23;;;;;;;21.90;18.77;;;;;;;11.78;47.52;94816.13;1038459;28;20433;-79
2020/12/03 09:30:54;;;;;;;26.08;20.52;;;;;;;9.92;51.23;94792.22;1042318;28;20017;-77
2020/12/03 09:31:25;;;;;;;25.42;20.45;;;;;;;9.22;53.20;94821.53;1046568;28;20839;-74
2020/12/03 09:32:00;;;;;;;24.27;20.33;;;;;;;9.26;56.95;94813.94;1049198;28;20055;-73
2020/12/03 09:32:30;;;;;;;23.05;18.15;;;;;;;9.25;57.26;94826.22;1050342;28;20549;-71
2020/12/03 09:33:01;;;;;;;19.38;12.73;;;;;;;10.86;67.81;94822.94;1050099;28;20028;-64
2020/12/03 09:33:32;;;;;;;16.73;10.27;;;;;;;11.68;71.39;94826.81;1049887;28;20052;-61
2020/12/03 09:34:03;;;;;;;14.80;11.05;;;;;;;12.49;69.21;94814.66;1046062;28;20024;-66
2020/12/03 09:34:35;;;;;;;19.17;10.30;;;;;;;13.29;67.10;94811.53;1045808;28;20029;-64
2020/12/03 09:35:05;;;;;;;17.02;10.93;;;;;;;14.00;65.16;94822.03;1044766;28;20856;-64
2020/12/03 09:35:36;;;;;;;20.05;10.13;;;;;;;14.57;64.08;94820.16;1047791;28;20335;-64
2020/12/03 09:36:06;;;;;;;16.30;9.05;;;;;;;15.11;63.13;94803.94;1049082;28;20016;-65
2020/12/03 09:36:37;;;;;;;11.75;8.55;;;;;;;15.52;62.10;94806.00;1045081;28;20029;-64
2020/12/03 09:37:08;;;;;;;12.75;8.73;;;;;;;16.11;59.21;94801.91;1050440;28;20035;-65
2020/12/03 09:37:39;;;;;;;15.30;9.35;;;;;;;16.36;60.02;94805.47;1042581;28;20068;-64
2020/12/03 09:38:10;;;;;;;17.65;12.20;;;;;;;16.45;56.43;94790.31;1044471;28;20028;-63
2020/12/03 09:38:40;;;;;;;17.40;9.88;;;;;;;16.91;56.73;94776.09;1048261;28;20066;-64
2020/12/03 09:39:11;;;;;;;15.93;10.00;;;;;;;17.23;56.50;94791.53;1038305;28;20033;-64
2020/12/03 09:39:42;;;;;;;12.85;8.25;;;;;;;17.54;55.91;94796.34;1044830;28;20024;-63
2020/12/03 09:40:13;;;;;;;14.15;7.88;;;;;;;17.76;56.13;94797.81;1044172;28;20318;-62
2020/12/03 09:40:47;;;;;;;10.52;7.28;;;;;;;17.96;55.84;94801.50;1045666;28;20059;-62
2020/12/03 09:41:21;;;;;;;9.43;7.15;;;;;;;18.18;55.13;94784.34;1046481;28;20037;-62
2020/12/03 09:41:52;;;;;;;15.55;7.25;;;;;;;18.30;55.13;94792.28;1051923;28;20030;-62
2020/12/03 09:42:23;;;;;;;9.07;6.15;;;;;;;18.42;55.26;94794.16;1046045;28;20029;-62
2020/12/03 09:42:54;;;;;;;7.68;6.00;;;;;;;18.21;55.21;94744.63;1052695;28;20516;-63
2020/12/03 09:43:25;;;;;;;9.13;5.78;;;;;;;18.63;54.93;94788.69;1050352;28;20110;-62
2020/12/03 09:43:58;;;;;;;7.97;5.60;;;;;;;18.71;54.81;94785.09;1054896;27;20536;-62
2020/12/03 09:44:33;;;;;;;12.93;5.75;;;;;;;18.78;54.65;94780.03;1055867;28;20034;-62
2020/12/03 09:45:09;;;;;;;6.60;5.15;;;;;;;18.86;54.28;94776.44;1046351;28;20134;-64
2020/12/03 09:45:43;;;;;;;8.50;5.47;;;;;;;18.93;54.31;94776.63;1046241;28;20697;-62
2020/12/03 09:46:17;;;;;;;7.32;5.43;;;;;;;19.00;54.07;94779.47;1048254;28;20100;-62
2020/12/03 09:46:48;;;;;;;8.30;6.13;;;;;;;19.00;54.01;94766.19;1051691;28;20433;-62
2020/12/03 09:47:19;;;;;;;8.90;5.63;;;;;;;19.10;53.84;94770.22;1045797;28;20056;-62
2020/12/03 09:47:50;;;;;;;7.68;5.50;;;;;;;19.14;53.68;94776.41;1045349;28;20021;-62
2020/12/03 09:48:21;;;;;;;8.50;6.30;;;;;;;19.17;53.68;94764.31;1047145;28;20028;-62
2020/12/03 09:48:52;;;;;;;11.80;5.90;;;;;;;19.22;53.62;94764.84;1051145;28;20115;-62
2020/12/03 09:49:23;;;;;;;9.75;5.70;;;;;;;19.26;53.40;94767.59;1054596;28;20063;-62
2020/12/03 09:49:53;;;;;;;7.60;5.63;;;;;;;19.30;53.35;94769.22;1048108;28;20103;-62
2020/12/03 09:50:24;;;;;;;9.68;6.00;;;;;;;19.45;55.42;94758.94;1045659;28;20013;-66
2020/12/03 09:50:54;;;;;;;14.80;5.60;;;;;;;19.66;54.58;94769.38;1050377;28;20023;-63
2020/12/03 09:51:25;;;;;;;127.03;9.15;;;;;;;19.96;59.07;94765.13;1050217;28;20031;-68
2020/12/03 12:22:57;;;;;;;31.73;18.52;;;;;;;4.38;70.73;94579.69;1046598;28;20397;-68
2020/12/03 12:23:27;;;;;;;30.05;19.48;;;;;;;4.43;70.45;94578.97;1046441;28;20044;-71
2020/12/03 12:23:58;;;;;;;33.28;20.05;;;;;;;4.58;70.22;94583.44;1046322;28;20498;-74
2020/12/03 12:24:30;;;;;;;31.88;21.15;;;;;;;4.63;69.76;94575.69;1048963;28;20062;-69
2020/12/03 12:25:00;;;;;;;31.77;20.35;;;;;;;4.86;68.92;94583.03;1046329;28;20021;-71
2020/12/03 12:25:31;;;;;;;32.38;20.90;;;;;;;4.72;69.39;94568.94;1039495;28;20286;-70
2020/12/03 12:26:02;;;;;;;27.20;19.35;;;;;;;4.85;69.35;94578.09;1027705;28;20034;-72
2020/12/03 12:26:32;;;;;;;29.80;21.05;;;;;;;5.26;67.69;94573.75;1025304;28;20043;-70
2020/12/03 12:27:03;;;;;;;31.42;21.45;;;;;;;5.20;67.17;94580.00;1025095;28;20035;-69
2020/12/03 12:27:34;;;;;;;29.77;21.50;;;;;;;4.70;68.90;94576.22;1025964;28;20617;-71
2020/12/03 12:28:04;;;;;;;29.48;19.85;;;;;;;4.89;67.74;94577.31;1029791;28;20023;-72
2020/12/03 12:28:35;;;;;;;30.40;21.23;;;;;;;5.14;67.50;94578.44;1035996;28;20834;-71
2020/12/03 12:29:05;;;;;;;28.33;20.05;;;;;;;4.70;68.17;94586.63;1038417;28;20033;-70
2020/12/03 12:29:36;;;;;;;28.85;19.80;;;;;;;4.68;68.17;94588.66;1034469;28;20022;-71
2020/12/03 12:30:07;;;;;;;28.10;19.67;;;;;;;4.56;68.16;94580.28;1040112;28;20133;-71
2020/12/03 12:30:38;;;;;;;31.13;20.77;;;;;;;4.47;68.87;94580.78;1030113;28;20340;-69
2020/12/03 12:31:08;;;;;;;32.30;21.58;;;;;;;4.33;69.56;94591.88;1027297;28;20050;-71
2020/12/03 12:31:39;;;;;;;28.98;21.75;;;;;;;4.29;69.63;94581.19;1030043;28;20512;-71
2020/12/03 12:32:09;;;;;;;29.42;21.13;;;;;;;4.32;69.86;94580.69;1029191;28;20121;-68
2020/12/03 12:32:40;;;;;;;28.15;20.25;;;;;;;4.45;69.29;94582.06;1027043;28;20620;-69
2020/12/03 12:33:10;;;;;;;31.15;20.75;;;;;;;4.42;69.36;94579.97;1029636;28;20702;-70
2020/12/03 12:33:41;;;;;;;30.30;21.67;;;;;;;4.11;69.72;94568.66;1035483;28;20511;-69
2020/12/03 12:34:12;;;;;;;29.55;21.52;;;;;;;4.27;70.18;94585.88;1030385;28;20120;-70
2020/12/03 12:34:43;;;;;;;29.90;21.88;;;;;;;4.20;69.96;94580.13;1040870;28;20043;-74
2020/12/03 12:35:14;;;;;;;29.58;21.58;;;;;;;3.82;70.92;94575.97;1029902;28;20038;-70
2020/12/03 12:35:44;;;;;;;28.63;20.75;;;;;;;3.59;71.40;94584.84;1025954;28;20269;-69
2020/12/03 12:36:15;;;;;;;30.88;20.92;;;;;;;3.46;71.32;94579.06;1025692;28;20109;-69
2020/12/03 12:36:46;;;;;;;29.58;21.25;;;;;;;3.15;72.12;94577.97;1024413;28;20106;-70
2020/12/03 12:37:16;;;;;;;30.10;21.70;;;;;;;2.82;73.70;94586.72;1029774;28;20407;-70
2020/12/03 12:37:47;;;;;;;29.88;21.30;;;;;;;2.76;74.46;94580.69;1033938;28;20502;-72
2020/12/03 12:38:18;;;;;;;34.05;22.23;;;;;;;2.39;75.48;94572.75;1032751;28;20033;-68
2020/12/03 12:38:48;;;;;;;33.05;23.13;;;;;;;2.50;75.76;94586.59;1034138;28;20468;-71
2020/12/03 12:39:19;;;;;;;30.77;22.05;;;;;;;2.36;75.76;94583.56;1034120;28;20026;-67
2020/12/03 12:39:50;;;;;;;34.45;23.55;;;;;;;2.15;76.84;94577.34;1029223;28;20018;-67
2020/12/03 12:40:20;;;;;;;30.35;21.48;;;;;;;2.10;77.01;94583.22;1029692;28;20472;-70
2020/12/03 12:40:51;;;;;;;33.75;22.90;;;;;;;1.99;77.56;94581.53;1029820;28;20058;-68
2020/12/03 12:41:21;;;;;;;32.85;21.90;;;;;;;1.68;78.25;94574.31;1029724;28;20053;-69
2020/12/03 12:42:08;;;;;;;32.83;22.70;;;;;;;1.54;78.76;94561.72;1035666;28;20073;-72
2020/12/03 12:42:41;;;;;;;33.06;22.34;;;;;;;1.63;79.29;94593.13;1032146;28;20030;-67
2020/12/03 12:43:12;;;;;;;32.00;22.40;;;;;;;1.56;79.71;94577.00;1033991;28;20057;-68
2020/12/03 12:43:42;;;;;;;32.88;22.17;;;;;;;1.53;79.73;94578.25;1030455;28;20138;-74
2020/12/03 12:44:13;;;;;;;32.47;21.98;;;;;;;1.53;79.80;94593.75;1030095;28;20034;-69
2020/12/03 12:44:44;;;;;;;34.67;22.88;;;;;;;1.50;80.23;94591.63;1033937;28;20073;-67
2020/12/03 12:45:14;;;;;;;33.85;23.30;;;;;;;1.48;80.23;94591.09;1027171;28;20117;-71
2020/12/03 12:45:45;;;;;;;34.00;22.83;;;;;;;1.22;80.23;94576.97;1032183;28;20595;-71
2020/12/03 12:46:22;;;;;;;35.42;23.45;;;;;;;1.21;80.84;94584.94;1033778;28;20519;-69
2020/12/03 12:46:56;;;;;;;34.88;22.54;;;;;;;1.12;81.51;94574.19;1026889;28;20022;-69
2020/12/03 12:47:27;;;;;;;35.04;23.66;;;;;;;1.06;81.34;94582.88;1029972;28;20022;-70